Aeroporto :
LOGIN :

Iscrizione | Disclaimer

   EN    FR    IT 

 










Sommario :    VFR   VFR Marginale   IFR   IFR Intensivo   IFR Molto Intensivo
Visibilità : 
Base nubi : 
>= 8 km
>= 3000ft
5 / 8 km
1000 / 3000 ft
1500m / 5 km
500 / 1000 ft
800 / 1500m
200 / 500 ft
< 800m
< 200 ft
Simboli :   Temporali  Nebbia  Neve Forte  Precipitazioni Forti  Vento > 20 kt
SIGMETs :   Varie  Temporali  Ghiacco  Turbolenza  Onda orograficha  Ceneri Vulcaniche






- Altitudine del aeroporto : 172 ft
- Codice IATA : ODS


UKOO - Odesa

ULTIMO METAR :
  • 031900Z 29002MPS 0300 0250S R34/0300N FG VV001 03/03 Q1022 R34/190058 NOSIG

METARs OBSOLETI :
  • 031830Z 29002MPS 0450 0400S R34/0500N FG VV001 03/03 Q1022 R34/190058 NOSIG
  • 031803Z 28002MPS 0550 0450S R34/0500N FG VV001 03/03 Q1022 R34/190058 NOSIG
  • 031800Z 28002MPS 0550 0450S R34/0550N FG VV001 03/03 Q1022 R34/190058 NOSIG
  • 031730Z 30003MPS 0600 0550S R34/0650N FG VV001 03/03 Q1022 R34/190058 NOSIG
  • 031700Z 31003MPS 0550 0500S R34/0600N FG VV001 03/03 Q1022 R34/190058 NOSIG
  • 031630Z 31003MPS 0700 0650S R34/0750N FG VV001 04/04 Q1022 R34/190058 NOSIG
  • 031625Z 31003MPS 0700 R34/0750N FG VV001 04/04 Q1022 R34/190058 NOSIG
  • 031600Z 33004MPS 0800 R34/1000N FG VV001 04/04 Q1021 R34/190058 NOSIG

TAF TAF UKOO
Valido dal 03 a 18 ore il 04 a 18 ore UTC


031710Z 0318/0418 07003MPS 0300 FG VV001 TX06/0412Z TN01/0402Z
TEMPO 0318/0408 0900 -DZ FG VV003
BECMG 0408/0409 11006G13MPS 2100 BR BKN004



MetMap, La meteo Aeronautica in un colpo d'occhio ! - Copyright ORBIFLY Dicembre 2007 - Disclaimer

ORBIFLY MET'MAP TEAM :

Programmazione e sviluppo : Alexandra Zaïnal
Concezione : Baudouin d'Aumeries
Aiuto per la programmazione : Marc-Olivier Méhu
Supporto tecnico e logistico : Manuel Goepfert
Aiuto per la traduzione : Arnaldo La Scala

Contatto : metmap@orbifly.com




FONTI E CREDITI :

   NOAA